Time;durP1;ratioP1;P1;durP2;ratioP2;P2;SDS_P1;SDS_P2;PMS_P1;PMS_P2;Temp;Humidity;BMP_temperature;BMP_pressure;BME280_temperature;BME280_humidity;BME280_pressure;Samples;Min_cycle;Max_cycle;Signal;HPM_P1;HPM_P2
2021/12/21 00:00:23;;;;;;;47.47;24.17;;;;;;;-5.02;98.45;102887.38;2080411;28;31415;-58
2021/12/21 00:01:27;;;;;;;59.33;24.77;;;;;;;-4.97;98.85;102889.41;2080167;28;46527;-58
2021/12/21 00:02:29;;;;;;;63.17;24.17;;;;;;;-4.97;97.58;102885.13;2079963;28;42398;-58
2021/12/21 00:03:30;;;;;;;54.30;26.13;;;;;;;-4.97;97.68;102887.72;2080479;28;30786;-58
2021/12/21 00:04:32;;;;;;;53.42;23.90;;;;;;;-4.97;98.98;102884.19;2072012;28;46202;-58
2021/12/21 00:05:35;;;;;;;61.92;25.30;;;;;;;-4.99;98.45;102887.63;2071944;28;45491;-58
2021/12/21 00:06:37;;;;;;;83.38;29.80;;;;;;;-4.95;99.05;102879.97;2063361;28;46452;-58
2021/12/21 00:07:42;;;;;;;99.68;30.50;;;;;;;-4.89;98.00;102883.03;2063405;28;43545;-58
2021/12/21 00:08:44;;;;;;;79.68;23.67;;;;;;;-4.87;99.45;102878.84;2072722;28;20073;-58
2021/12/21 00:09:48;;;;;;;88.72;30.35;;;;;;;-4.84;97.99;102882.56;2071860;28;46238;-58
2021/12/21 00:10:49;;;;;;;78.10;27.48;;;;;;;-4.83;98.07;102873.00;2072132;28;43891;-58
2021/12/21 00:11:53;;;;;;;69.72;27.65;;;;;;;-4.80;98.85;102873.25;2072534;28;20865;-59
2021/12/21 00:14:14;;;;;;;55.80;24.48;;;;;;;-4.80;99.25;102870.63;2071970;28;45267;-59
2021/12/21 00:15:32;;;;;;;60.35;24.15;;;;;;;-4.81;98.34;102881.88;2072083;28;45131;-57
2021/12/21 00:17:01;;;;;;;51.22;21.88;;;;;;;-4.80;98.55;102875.84;2080208;28;43803;-59
2021/12/21 00:18:21;;;;;;;69.35;23.33;;;;;;;-4.83;98.44;102883.47;2079475;28;45857;-59
2021/12/21 00:22:27;;;;;;;60.38;22.73;;;;;;;-4.83;98.98;102870.41;2054493;28;44483;-58
2021/12/21 00:23:33;;;;;;;46.08;20.33;;;;;;;-4.89;98.33;102867.38;2080044;28;42530;-58
2021/12/21 00:24:45;;;;;;;60.58;22.80;;;;;;;-4.90;97.79;102870.75;2080208;28;44034;-58
2021/12/21 00:25:47;;;;;;;40.05;19.80;;;;;;;-4.93;97.91;102873.19;2080482;28;32729;-58
2021/12/21 00:26:48;;;;;;;68.80;26.08;;;;;;;-4.98;98.04;102862.41;2080074;28;45665;-58
2021/12/21 00:27:52;;;;;;;44.40;21.30;;;;;;;-5.00;98.87;102874.44;2072027;28;20104;-58
2021/12/21 00:29:01;;;;;;;62.22;23.20;;;;;;;-5.03;98.69;102875.13;2071993;28;24578;-58
2021/12/21 00:30:06;;;;;;;46.65;21.27;;;;;;;-5.06;97.81;102874.91;2071774;28;44592;-59
2021/12/21 00:31:08;;;;;;;43.28;20.52;;;;;;;-5.07;97.75;102877.41;2074502;28;21856;-59
2021/12/21 00:32:10;;;;;;;60.58;25.35;;;;;;;-5.11;97.66;102871.06;2071062;28;45934;-57
2021/12/21 00:33:12;;;;;;;56.90;23.05;;;;;;;-5.12;97.60;102866.63;2071328;28;46432;-58
2021/12/21 00:34:14;;;;;;;49.13;22.23;;;;;;;-5.11;97.60;102871.06;2080211;28;42431;-58
2021/12/21 00:35:16;;;;;;;53.50;23.65;;;;;;;-5.12;98.15;102858.78;2080277;28;44426;-58
2021/12/21 00:36:23;;;;;;;43.47;19.85;;;;;;;-5.11;98.64;102858.00;2080228;28;44597;-58
2021/12/21 00:37:27;;;;;;;58.63;23.02;;;;;;;-5.11;98.36;102864.94;2071875;28;45427;-59
2021/12/21 00:38:29;;;;;;;69.35;23.15;;;;;;;-5.10;97.71;102869.34;2072260;28;30285;-59
2021/12/21 00:39:31;;;;;;;49.92;23.15;;;;;;;-5.12;97.69;102869.22;2080385;28;45922;-59
2021/12/21 00:40:32;;;;;;;45.10;19.08;;;;;;;-5.12;97.58;102864.00;2080004;28;44247;-58
2021/12/21 00:41:34;;;;;;;52.88;19.85;;;;;;;-5.16;97.35;102858.47;2079675;28;46640;-58
2021/12/21 00:42:39;;;;;;;63.25;23.17;;;;;;;-5.18;97.60;102864.47;2079936;28;32606;-59
2021/12/21 00:43:41;;;;;;;53.10;21.17;;;;;;;-5.18;98.98;102861.88;2079664;28;45603;-58
2021/12/21 00:44:42;;;;;;;48.00;20.85;;;;;;;-5.19;97.94;102861.75;2080021;28;45937;-58
2021/12/21 00:45:49;;;;;;;54.47;20.85;;;;;;;-5.21;97.50;102860.75;2079834;28;45263;-58
2021/12/21 00:46:53;;;;;;;50.10;23.42;;;;;;;-5.24;97.35;102863.13;2080050;28;44909;-59
2021/12/21 00:47:55;;;;;;;49.63;20.70;;;;;;;-5.24;97.31;102866.66;2080935;28;20033;-58
2021/12/21 00:49:01;;;;;;;57.90;22.42;;;;;;;-5.26;98.58;102856.88;2079829;28;45916;-58
2021/12/21 00:50:07;;;;;;;49.08;20.02;;;;;;;-5.27;98.55;102855.09;2079462;28;44455;-59
2021/12/21 00:51:11;;;;;;;48.17;21.33;;;;;;;-5.27;97.64;102857.69;2080350;28;32151;-58
2021/12/21 00:52:14;;;;;;;47.97;21.50;;;;;;;-5.27;97.71;102857.69;2070518;28;46566;-58
2021/12/21 00:53:16;;;;;;;52.85;20.45;;;;;;;-5.29;97.82;102860.19;2071281;28;42597;-58
2021/12/21 00:54:18;;;;;;;61.13;25.38;;;;;;;-5.29;98.00;102860.19;2079597;28;44323;-58
2021/12/21 00:55:22;;;;;;;52.78;20.95;;;;;;;-5.29;98.02;102865.41;2071371;28;45957;-58
2021/12/21 00:56:23;;;;;;;51.90;20.20;;;;;;;-5.27;98.31;102860.31;2070847;28;44186;-58
2021/12/21 00:57:27;;;;;;;42.90;20.35;;;;;;;-5.28;97.26;102855.88;2079277;28;45180;-58
2021/12/21 00:58:32;;;;;;;58.95;26.35;;;;;;;-5.31;97.30;102855.63;2079889;28;43730;-58
2021/12/21 00:59:34;;;;;;;64.13;24.42;;;;;;;-5.30;97.49;102857.47;2080496;28;39360;-58
2021/12/21 01:00:38;;;;;;;81.72;28.50;;;;;;;-5.28;98.43;102853.25;2079817;28;44905;-58
2021/12/21 01:01:42;;;;;;;68.70;23.40;;;;;;;-5.26;98.45;102851.66;2071196;28;36240;-58
2021/12/21 01:02:44;;;;;;;53.63;20.85;;;;;;;-5.26;97.50;102860.44;2071555;28;29020;-58
2021/12/21 01:03:53;;;;;;;56.00;22.23;;;;;;;-5.25;97.97;102861.31;2079130;28;45768;-59
2021/12/21 01:04:57;;;;;;;68.22;20.40;;;;;;;-5.27;98.15;102863.81;2080031;28;43364;-58
2021/12/21 01:06:09;;;;;;;73.53;21.30;;;;;;;-5.27;97.91;102863.81;2079669;28;46323;-58
2021/12/21 01:08:21;;;;;;;70.63;21.02;;;;;;;-5.31;97.88;102853.03;2080436;28;24290;-58
2021/12/21 01:11:57;;;;;;;60.47;25.23;;;;;;;-5.25;97.87;102863.94;2079597;28;44000;-58
2021/12/21 01:13:52;;;;;;;56.58;25.85;;;;;;;-5.26;98.40;102859.50;2080164;28;43531;-58
2021/12/21 01:17:08;;;;;;;52.55;21.80;;;;;;;-5.23;99.07;102857.13;2077277;28;45509;-58
2021/12/21 01:18:21;;;;;;;56.15;20.40;;;;;;;-5.24;97.59;102858.84;2081244;28;46208;-58
2021/12/21 01:19:35;;;;;;;95.32;29.35;;;;;;;-5.25;97.77;102861.31;2081182;28;42190;-58
2021/12/21 01:20:42;;;;;;;48.17;22.73;;;;;;;-5.26;97.82;102859.50;2080351;28;45570;-58
2021/12/21 01:22:04;;;;;;;50.22;21.90;;;;;;;-5.28;98.56;102863.69;2081169;28;44783;-58
2021/12/21 01:25:28;;;;;;;42.17;20.25;;;;;;;-5.40;98.38;102854.19;2073841;28;43961;-60
2021/12/21 01:26:44;;;;;;;38.40;17.77;;;;;;;-5.45;98.21;102850.34;2077012;28;43316;-59
2021/12/21 01:29:52;;;;;;;44.80;19.80;;;;;;;-5.54;98.16;102861.78;2081835;28;27830;-58
2021/12/21 01:34:09;;;;;;;39.33;18.40;;;;;;;-5.65;97.24;102859.31;2081224;28;46445;-58
2021/12/21 01:35:23;;;;;;;39.83;19.33;;;;;;;-5.68;97.21;102860.78;2080970;28;43845;-58
2021/12/21 01:36:34;;;;;;;33.47;17.67;;;;;;;-5.71;97.33;102858.84;2081118;28;44238;-58
2021/12/21 01:39:06;;;;;;;46.42;21.92;;;;;;;-5.70;98.42;102865.00;2081123;28;43913;-58
2021/12/21 01:41:36;;;;;;;39.92;19.95;;;;;;;-5.68;97.45;102855.56;2081217;28;44637;-58
2021/12/21 01:43:46;;;;;;;44.58;19.85;;;;;;;-5.65;97.38;102850.56;2081281;28;44662;-58
2021/12/21 01:50:11;;;;;;;;;;;;;;;-5.72;97.57;102856.13;2081526;28;44653;-58
2021/12/21 01:51:14;;;;;;;43.17;19.58;;;;;;;-5.73;98.58;102852.59;2081592;28;45740;-58
2021/12/21 01:52:23;;;;;;;40.40;16.77;;;;;;;-5.73;98.37;102846.50;2080830;28;44357;-57
2021/12/21 01:53:25;;;;;;;33.75;16.48;;;;;;;-5.73;98.46;102854.31;2072858;28;29362;-58
2021/12/21 01:54:27;;;;;;;44.67;20.70;;;;;;;-5.75;98.28;102852.50;2072776;28;45850;-58
2021/12/21 01:55:32;;;;;;;41.72;19.65;;;;;;;-5.77;97.43;102851.47;2080217;28;45183;-57
2021/12/21 01:56:33;;;;;;;36.63;18.40;;;;;;;-5.78;97.51;102846.13;2081379;28;26330;-58
2021/12/21 01:57:35;;;;;;;37.80;18.50;;;;;;;-5.81;97.60;102844.22;2081083;28;44024;-58
2021/12/21 01:58:39;;;;;;;38.97;19.77;;;;;;;-5.79;97.58;102849.56;2080885;28;45932;-58
2021/12/21 01:59:45;;;;;;;53.50;23.17;;;;;;;-5.77;98.23;102842.75;2081080;28;44410;-58
2021/12/21 02:00:48;;;;;;;43.92;22.35;;;;;;;-5.76;97.74;102844.53;2072748;28;21211;-58
2021/12/21 02:01:51;;;;;;;47.80;23.10;;;;;;;-5.73;98.41;102849.09;2074223;28;20042;-57
2021/12/21 02:02:52;;;;;;;30.48;16.73;;;;;;;-5.71;97.55;102850.13;2071995;28;43995;-58
2021/12/21 02:03:56;;;;;;;53.83;22.73;;;;;;;-5.67;98.63;102841.72;2073300;28;20034;-58
2021/12/21 02:05:03;;;;;;;37.97;19.73;;;;;;;-5.64;98.54;102834.13;2080961;28;44092;-58
2021/12/21 02:06:05;;;;;;;51.72;22.15;;;;;;;-5.62;99.11;102837.75;2080577;28;46611;-58
2021/12/21 02:07:09;;;;;;;55.45;23.75;;;;;;;-5.58;98.84;102834.56;2081726;28;26003;-58
2021/12/21 02:08:10;;;;;;;59.92;26.38;;;;;;;-5.61;98.95;102834.34;2080846;28;43998;-58
2021/12/21 02:09:12;;;;;;;49.80;21.25;;;;;;;-5.56;98.29;102843.44;2080978;28;44805;-58
2021/12/21 02:10:14;;;;;;;60.80;26.08;;;;;;;-5.50;98.77;102833.44;2081200;28;27600;-58
2021/12/21 02:11:16;;;;;;;36.22;18.63;;;;;;;-5.52;97.90;102836.75;2081054;28;46579;-58
2021/12/21 02:12:21;;;;;;;53.65;25.27;;;;;;;-5.55;98.47;102837.41;2080676;28;42562;-58
2021/12/21 02:13:23;;;;;;;57.92;25.67;;;;;;;-5.56;98.93;102827.78;2081279;28;44408;-58
2021/12/21 02:14:24;;;;;;;49.50;24.48;;;;;;;-5.54;98.51;102825.25;2080937;28;45283;-58
2021/12/21 02:15:26;;;;;;;52.67;24.33;;;;;;;-5.54;98.15;102826.19;2080957;28;42408;-58
2021/12/21 02:16:44;;;;;;;50.03;25.52;;;;;;;-5.51;98.49;102825.47;2080589;28;44331;-58
2021/12/21 02:21:37;;;;;;;70.75;23.88;;;;;;;-5.53;98.34;102820.16;2081035;28;26058;-58
2021/12/21 02:22:45;;;;;;;38.67;19.30;;;;;;;-5.54;98.42;102820.97;2080639;28;45376;-58
2021/12/21 02:23:49;;;;;;;50.97;21.08;;;;;;;-5.54;98.35;102820.97;2080877;28;44683;-58
2021/12/21 02:25:02;;;;;;;46.78;19.42;;;;;;;-5.57;98.40;102820.72;2080791;28;44051;-57
2021/12/21 02:27:18;;;;;;;66.45;23.77;;;;;;;-5.57;98.59;102820.72;2081661;28;26422;-57
2021/12/21 02:28:44;;;;;;;68.60;26.33;;;;;;;-5.33;98.90;102818.09;2080490;28;44047;-58
2021/12/21 02:29:44;;;;;;;80.47;27.60;;;;;;;-5.31;99.12;102821.69;2080734;28;45879;-58
2021/12/21 02:30:52;;;;;;;66.60;27.67;;;;;;;-5.28;99.30;102822.81;2072111;28;45457;-58
2021/12/21 02:31:55;;;;;;;61.88;28.50;;;;;;;-5.25;99.04;102825.66;2072498;28;45302;-58
2021/12/21 02:32:57;;;;;;;66.60;27.17;;;;;;;-5.22;98.47;102820.69;2081046;28;29450;-58
2021/12/21 02:33:59;;;;;;;74.78;30.92;;;;;;;-5.07;98.61;102819.97;2080461;28;44210;-58
2021/12/21 02:35:03;;;;;;;120.82;30.80;;;;;;;-5.09;98.42;102819.84;2081048;28;44581;-58
2021/12/21 02:36:07;;;;;;;71.60;27.90;;;;;;;-5.10;98.66;102819.72;2081277;28;30253;-58
2021/12/21 02:37:08;;;;;;;68.60;26.40;;;;;;;-5.11;98.38;102818.84;2080406;28;46483;-58
2021/12/21 02:38:11;;;;;;;75.00;30.40;;;;;;;-5.07;99.92;102815.63;2081196;28;42447;-58
2021/12/21 02:39:14;;;;;;;56.35;22.65;;;;;;;-5.10;99.78;102815.41;2080656;28;42908;-59
2021/12/21 02:40:16;;;;;;;83.13;28.67;;;;;;;-5.13;99.50;102806.44;2080681;28;46313;-58
2021/12/21 02:41:18;;;;;;;58.75;24.42;;;;;;;-5.12;99.48;102814.41;2080655;28;41779;-58
2021/12/21 02:42:19;;;;;;;84.80;27.58;;;;;;;-5.15;98.21;102810.66;2080247;28;44259;-57
2021/12/21 02:43:22;;;;;;;72.57;26.10;;;;;;;-5.16;98.68;102814.97;2080231;28;45684;-58
2021/12/21 02:44:23;;;;;;;53.25;22.60;;;;;;;-5.17;98.24;102810.53;2080830;28;31969;-58
2021/12/21 02:45:25;;;;;;;48.30;19.98;;;;;;;-5.20;98.11;102816.47;2080918;28;46530;-58
2021/12/21 02:46:30;;;;;;;58.60;23.27;;;;;;;-5.19;98.95;102818.28;2080529;28;42196;-57
2021/12/21 02:47:32;;;;;;;67.50;26.55;;;;;;;-5.18;99.09;102819.19;2071287;28;44246;-57
2021/12/21 02:48:34;;;;;;;69.90;26.08;;;;;;;-5.17;98.21;102815.75;2071801;28;45799;-58
2021/12/21 02:49:36;;;;;;;58.97;25.98;;;;;;;-5.13;98.67;102816.88;2080780;28;44310;-59
2021/12/21 02:50:39;;;;;;;50.70;19.38;;;;;;;-5.15;99.18;102808.03;2080435;28;46223;-58
2021/12/21 02:51:44;;;;;;;40.08;19.63;;;;;;;-5.13;99.41;102815.22;2081102;28;43288;-59
2021/12/21 02:52:47;;;;;;;55.58;21.00;;;;;;;-5.14;98.20;102813.38;2080717;28;44322;-58
2021/12/21 02:53:48;;;;;;;43.22;17.23;;;;;;;-5.13;98.87;102814.28;2080470;28;45830;-59
2021/12/21 02:54:51;;;;;;;101.57;30.73;;;;;;;-5.11;98.62;102808.38;2080851;28;45041;-60
2021/12/21 02:55:52;;;;;;;67.80;27.80;;;;;;;-5.11;99.10;102811.00;2080667;28;44404;-59
2021/12/21 02:56:54;;;;;;;82.90;27.98;;;;;;;-5.08;98.09;102803.38;2080668;28;42547;-58
2021/12/21 02:57:57;;;;;;;68.72;27.90;;;;;;;-5.06;99.50;102807.00;2080772;28;36818;-60
2021/12/21 02:58:59;;;;;;;56.45;22.58;;;;;;;-5.06;98.46;102806.09;2071919;28;44336;-60
2021/12/21 03:00:05;;;;;;;79.65;26.17;;;;;;;-5.07;99.72;102805.19;2072481;28;44388;-58
2021/12/21 03:01:10;;;;;;;68.07;25.92;;;;;;;-5.05;99.47;102802.69;2080750;28;44390;-59
2021/12/21 03:02:11;;;;;;;49.45;20.13;;;;;;;-5.09;99.32;102800.66;2080515;28;46092;-60
2021/12/21 03:03:14;;;;;;;55.80;23.27;;;;;;;-5.11;99.34;102799.66;2080629;28;30365;-60
2021/12/21 03:04:16;;;;;;;49.75;21.33;;;;;;;-5.13;98.81;102802.16;2080351;28;46440;-57
2021/12/21 03:05:20;;;;;;;45.28;18.67;;;;;;;-5.18;98.71;102804.44;2080634;28;43656;-58
2021/12/21 03:08:55;;;;;;;51.50;19.92;;;;;;;-5.26;99.03;102802.06;2081107;28;45050;-58
2021/12/21 03:10:00;;;;;;;57.95;18.27;;;;;;;-5.24;98.00;102803.06;2080277;28;46836;-58
2021/12/21 03:11:14;;;;;;;51.10;19.40;;;;;;;-5.26;98.68;102802.06;2080611;28;42537;-58
2021/12/21 03:14:44;;;;;;;35.30;14.43;;;;;;;-5.24;98.48;102804.00;2080672;28;44110;-58
2021/12/21 03:15:46;;;;;;;35.17;14.52;;;;;;;-5.26;97.89;102803.00;2080596;28;46202;-58
2021/12/21 03:16:48;;;;;;;75.95;23.58;;;;;;;-5.22;98.97;102801.50;2080488;28;43105;-59
2021/12/21 03:17:52;;;;;;;75.57;20.55;;;;;;;-5.26;99.09;102804.66;2080298;28;44446;-58
2021/12/21 03:18:56;;;;;;;35.67;16.40;;;;;;;-5.28;97.98;102804.56;2080269;28;44899;-59
2021/12/21 03:20:00;;;;;;;45.40;19.67;;;;;;;-5.26;99.29;102799.44;2080853;28;34709;-58
2021/12/21 03:21:03;;;;;;;51.47;20.42;;;;;;;-5.28;97.68;102808.88;2081198;28;20153;-58
2021/12/21 03:22:09;;;;;;;71.28;23.65;;;;;;;-5.28;98.00;102801.03;2080326;28;42708;-58
2021/12/21 03:23:11;;;;;;;33.05;16.08;;;;;;;-5.29;98.36;102797.53;2081586;28;30551;-58
2021/12/21 03:24:13;;;;;;;50.13;17.17;;;;;;;-5.29;98.10;102800.16;2080022;28;46032;-58
2021/12/21 03:25:16;;;;;;;57.25;23.08;;;;;;;-5.31;97.85;102803.44;2080505;28;42553;-58
2021/12/21 03:26:20;;;;;;;29.80;15.45;;;;;;;-5.31;98.41;102801.75;2080985;28;28127;-58
2021/12/21 03:27:24;;;;;;;37.42;17.58;;;;;;;-5.31;99.12;102800.81;2080725;28;20041;-58
2021/12/21 03:28:26;;;;;;;44.03;19.00;;;;;;;-5.32;98.13;102804.25;2080486;28;45646;-59
2021/12/21 03:29:28;;;;;;;39.72;16.75;;;;;;;-5.30;98.76;102802.66;2080094;28;46376;-58
2021/12/21 03:30:30;;;;;;;31.13;16.40;;;;;;;-5.32;99.18;102796.41;2080536;28;44473;-57
2021/12/21 03:31:33;;;;;;;28.70;13.25;;;;;;;-5.33;98.21;102805.03;2080353;28;44144;-58
2021/12/21 03:32:35;;;;;;;38.13;16.88;;;;;;;-5.35;98.48;102796.19;2080085;28;46685;-58
2021/12/21 03:33:37;;;;;;;46.53;16.90;;;;;;;-5.39;98.11;102805.50;2080454;28;45238;-58
2021/12/21 03:34:43;;;;;;;40.17;16.85;;;;;;;-5.41;98.96;102807.09;2079996;28;46569;-58
2021/12/21 03:35:45;;;;;;;31.73;12.48;;;;;;;-5.45;98.56;102799.84;2080369;28;43698;-58
2021/12/21 03:36:48;;;;;;;32.60;16.55;;;;;;;-5.43;98.76;102801.75;2080285;28;44226;-57
2021/12/21 03:37:49;;;;;;;25.77;14.48;;;;;;;-5.46;97.83;102804.13;2070900;28;43234;-57
2021/12/21 03:39:08;;;;;;;40.17;16.25;;;;;;;-5.46;98.27;102798.91;2071605;28;45452;-58
2021/12/21 03:40:11;;;;;;;40.70;16.65;;;;;;;-5.44;97.58;102796.44;2079759;28;44715;-58
2021/12/21 03:41:17;;;;;;;37.17;17.58;;;;;;;-5.45;98.43;102805.97;2080077;28;43308;-58
2021/12/21 03:42:19;;;;;;;28.30;13.30;;;;;;;-5.46;97.42;102798.91;2079902;28;45597;-58
2021/12/21 03:43:21;;;;;;;35.08;18.05;;;;;;;-5.47;98.57;102802.34;2080272;28;45742;-58
2021/12/21 03:44:25;;;;;;;32.30;15.27;;;;;;;-5.48;98.85;102805.72;2079780;28;44103;-58
2021/12/21 03:45:31;;;;;;;56.22;17.35;;;;;;;-5.48;98.56;102803.13;2081162;28;20870;-58
2021/12/21 03:46:33;;;;;;;45.70;17.80;;;;;;;-5.46;98.49;102801.53;2071783;28;43424;-58
2021/12/21 03:47:35;;;;;;;43.38;15.95;;;;;;;-5.45;98.42;102797.25;2071131;28;46093;-58
2021/12/21 03:48:43;;;;;;;56.60;18.30;;;;;;;-5.42;97.77;102797.44;2079552;28;38255;-57
2021/12/21 03:50:46;;;;;;;40.10;16.98;;;;;;;-5.38;98.80;102792.56;2080320;28;44170;-58
2021/12/21 03:51:48;;;;;;;54.75;19.70;;;;;;;-5.37;98.23;102786.53;2080187;28;45796;-58
2021/12/21 03:52:50;;;;;;;36.60;19.00;;;;;;;-5.34;99.24;102793.69;2080556;28;43936;-58
2021/12/21 03:53:52;;;;;;;33.28;14.20;;;;;;;-5.34;98.29;102791.06;2080189;28;45199;-58
2021/12/21 03:54:58;;;;;;;32.78;15.15;;;;;;;-5.33;98.50;102794.59;2080499;28;43814;-58
2021/12/21 03:56:47;;;;;;;37.80;17.58;;;;;;;-5.35;98.39;102794.47;2079879;28;44408;-58
2021/12/21 03:57:26;;;;;;;45.15;17.48;;;;;;;-5.38;97.60;102791.66;2071899;28;46217;-58
2021/12/21 03:58:27;;;;;;;50.05;17.17;;;;;;;-5.38;98.24;102794.28;2080672;28;24818;-58
2021/12/21 03:59:30;;;;;;;37.20;16.00;;;;;;;-5.37;97.74;102799.56;2080192;28;46168;-58
2021/12/21 04:00:32;;;;;;;44.35;17.67;;;;;;;-5.35;99.04;102804.00;2080128;28;43452;-58
2021/12/21 04:01:34;;;;;;;42.15;16.25;;;;;;;-5.35;98.83;102802.31;2080056;28;43672;-59
2021/12/21 04:02:36;;;;;;;34.05;16.58;;;;;;;-5.35;98.06;102801.41;2071261;28;45665;-59
2021/12/21 04:03:40;;;;;;;32.75;18.00;;;;;;;-5.33;99.08;102797.19;2071084;28;45362;-58
2021/12/21 04:04:43;;;;;;;25.55;15.48;;;;;;;-5.34;98.90;102790.19;2080247;28;46731;-58
2021/12/21 04:05:47;;;;;;;27.85;14.73;;;;;;;-5.36;98.41;102805.72;2079859;28;43622;-58
2021/12/21 04:06:49;;;;;;;34.83;18.73;;;;;;;-5.38;98.79;102797.78;2079849;28;45610;-58
2021/12/21 04:07:51;;;;;;;35.45;16.50;;;;;;;-5.35;98.88;102806.63;2080338;28;45845;-58
2021/12/21 04:08:52;;;;;;;34.80;15.55;;;;;;;-5.39;97.96;102806.41;2080535;28;45610;-57
2021/12/21 04:09:55;;;;;;;33.20;17.67;;;;;;;-5.39;98.95;102793.34;2080201;28;42637;-58
2021/12/21 04:10:57;;;;;;;42.38;18.55;;;;;;;-5.41;98.88;102801.88;2080772;28;44370;-58
2021/12/21 04:12:01;;;;;;;36.60;17.85;;;;;;;-5.39;97.56;102801.19;2079761;28;43918;-58
2021/12/21 04:13:02;;;;;;;42.35;20.27;;;;;;;-5.37;99.08;102791.75;2080506;28;29820;-58
2021/12/21 04:14:05;;;;;;;29.75;14.27;;;;;;;-5.32;98.66;102797.31;2079741;28;44100;-58
2021/12/21 04:15:07;;;;;;;45.50;20.38;;;;;;;-5.31;99.00;102795.59;2080189;28;44050;-58
2021/12/21 04:16:09;;;;;;;30.30;13.98;;;;;;;-5.32;97.65;102793.81;2080285;28;45928;-58
2021/12/21 04:17:22;;;;;;;36.72;16.70;;;;;;;-5.31;98.92;102799.13;2071689;28;45269;-60
2021/12/21 04:18:24;;;;;;;30.17;13.25;;;;;;;-5.31;98.78;102793.00;2072807;28;31702;-58
2021/12/21 04:19:26;;;;;;;41.88;15.45;;;;;;;-5.31;99.29;102795.59;2080166;28;43779;-59
2021/12/21 04:20:28;;;;;;;32.40;17.50;;;;;;;-5.32;98.57;102797.31;2079914;28;41730;-58
2021/12/21 04:21:30;;;;;;;34.53;14.02;;;;;;;-5.32;98.79;102796.41;2079644;28;45930;-59
2021/12/21 04:22:32;;;;;;;41.88;18.33;;;;;;;-5.32;98.16;102792.09;2080051;28;43884;-58
2021/12/21 04:23:36;;;;;;;27.15;14.02;;;;;;;-5.32;98.11;102792.09;2079766;28;45177;-59
2021/12/21 04:24:37;;;;;;;34.25;18.23;;;;;;;-5.32;98.95;102792.09;2080032;28;43749;-59
2021/12/21 04:25:42;;;;;;;58.03;19.63;;;;;;;-5.29;99.08;102787.09;2079523;28;45613;-58
2021/12/21 04:26:44;;;;;;;37.90;17.48;;;;;;;-5.29;97.68;102784.47;2071637;28;29439;-59
2021/12/21 04:27:48;;;;;;;50.83;17.17;;;;;;;-5.29;97.87;102784.47;2071582;28;42878;-59
2021/12/21 04:28:50;;;;;;;45.13;20.00;;;;;;;-5.26;98.34;102787.31;2079548;28;43965;-58
2021/12/21 04:29:52;;;;;;;42.45;14.30;;;;;;;-5.24;98.95;102780.50;2071425;28;31942;-59
2021/12/21 04:30:53;;;;;;;60.83;19.27;;;;;;;-5.22;97.86;102783.22;2070888;28;45392;-57
2021/12/21 04:31:55;;;;;;;42.95;17.30;;;;;;;-5.22;98.74;102788.44;2072086;28;22598;-58
2021/12/21 04:32:57;;;;;;;40.20;16.42;;;;;;;-5.24;99.40;102785.72;2071648;28;44547;-58
2021/12/21 04:33:59;;;;;;;69.07;19.77;;;;;;;-5.21;99.13;102779.81;2071783;28;44267;-58
2021/12/21 04:35:01;;;;;;;57.10;18.75;;;;;;;-5.21;98.69;102785.03;2072054;28;44696;-58
2021/12/21 04:36:04;;;;;;;37.72;14.65;;;;;;;-5.19;98.32;102788.63;2071653;28;45375;-58
2021/12/21 04:37:07;;;;;;;55.10;18.33;;;;;;;-5.22;98.08;102794.56;2072052;28;44252;-59
2021/12/21 04:38:20;;;;;;;38.30;17.40;;;;;;;-5.21;99.23;102790.25;2078786;28;41508;-58
2021/12/21 04:39:41;;;;;;;63.45;19.50;;;;;;;-5.19;97.98;102788.63;2080106;28;45303;-59
2021/12/21 04:40:47;;;;;;;37.22;13.50;;;;;;;-5.19;97.94;102789.56;2080960;28;21739;-58
2021/12/21 04:41:48;;;;;;;76.05;16.10;;;;;;;-5.18;98.41;102790.47;2079986;28;45417;-58
2021/12/21 04:43:05;;;;;;;48.75;16.45;;;;;;;-5.19;98.59;102797.41;2071122;28;44491;-58
2021/12/21 04:44:06;;;;;;;59.65;18.45;;;;;;;-5.16;97.72;102794.09;2071558;28;42146;-58
2021/12/21 04:45:08;;;;;;;53.67;16.52;;;;;;;-5.17;97.75;102789.66;2080008;28;45481;-57
2021/12/21 04:46:10;;;;;;;36.28;12.98;;;;;;;-5.17;99.17;102792.25;2079318;28;44699;-59
2021/12/21 04:47:12;;;;;;;34.08;13.90;;;;;;;-5.18;97.79;102790.47;2079878;28;44151;-58
2021/12/21 04:48:14;;;;;;;54.55;16.30;;;;;;;-5.19;97.79;102799.09;2079632;28;46413;-59
2021/12/21 04:49:16;;;;;;;43.55;15.13;;;;;;;-5.19;98.81;102788.63;2080572;28;33711;-58
2021/12/21 04:50:17;;;;;;;40.88;13.88;;;;;;;-5.22;97.74;102791.06;2079872;28;45397;-58
2021/12/21 04:51:20;;;;;;;53.10;14.23;;;;;;;-5.21;98.71;102790.25;2079218;28;44765;-59
2021/12/21 04:52:21;;;;;;;77.82;16.77;;;;;;;-5.22;97.70;102783.22;2079421;28;45564;-58
2021/12/21 04:53:27;;;;;;;65.53;15.10;;;;;;;-5.23;98.97;102789.22;2079984;28;45410;-58
2021/12/21 04:54:31;;;;;;;74.55;16.75;;;;;;;-5.21;98.03;102790.25;2079739;28;44034;-58
2021/12/21 04:55:36;;;;;;;137.68;20.05;;;;;;;-5.23;97.97;102787.53;2080324;28;31692;-58
2021/12/21 04:56:38;;;;;;;58.13;16.90;;;;;;;-5.23;98.91;102784.91;2079909;28;44918;-58
2021/12/21 04:57:41;;;;;;;165.30;20.60;;;;;;;-5.22;97.92;102788.44;2080534;28;28278;-59
2021/12/21 04:58:42;;;;;;;44.90;14.10;;;;;;;-5.21;98.65;102787.63;2080049;28;42772;-58
2021/12/21 04:59:46;;;;;;;94.65;16.13;;;;;;;-5.22;98.29;102778.91;2079595;28;44677;-58
2021/12/21 05:00:49;;;;;;;45.50;12.20;;;;;;;-5.20;98.22;102786.84;2079316;28;45522;-58
2021/12/21 05:01:52;;;;;;;65.43;16.90;;;;;;;-5.21;98.91;102787.63;2079585;28;45044;-59
2021/12/21 05:02:54;;;;;;;73.00;16.00;;;;;;;-5.22;98.22;102783.22;2070881;28;42442;-58
2021/12/21 05:03:56;;;;;;;47.75;15.07;;;;;;;-5.22;97.79;102785.84;2071235;28;44245;-59
2021/12/21 05:04:57;;;;;;;83.95;14.15;;;;;;;-5.24;98.57;102784.78;2080049;28;44493;-57
2021/12/21 05:06:00;;;;;;;32.03;13.20;;;;;;;-5.27;97.37;102788.09;2079374;28;45723;-59
2021/12/21 05:07:01;;;;;;;82.03;18.13;;;;;;;-5.29;98.95;102788.78;2079892;28;45180;-58
2021/12/21 05:08:09;;;;;;;39.92;14.77;;;;;;;-5.31;98.25;102785.16;2079368;28;26256;-58
2021/12/21 05:09:21;;;;;;;116.80;19.00;;;;;;;-5.34;97.46;102783.25;2080023;28;44294;-58
2021/12/21 05:10:23;;;;;;;43.00;14.40;;;;;;;-5.35;98.32;102786.63;2079782;28;43574;-58
2021/12/21 05:11:32;;;;;;;40.85;16.10;;;;;;;-5.37;97.41;102778.69;2079878;28;33874;-58
2021/12/21 05:12:36;;;;;;;23.63;8.85;;;;;;;-5.38;98.04;102782.13;2079550;28;46502;-58
2021/12/21 05:13:39;;;;;;;26.77;10.40;;;;;;;-5.37;98.50;102783.03;2079846;28;43563;-57
2021/12/21 05:14:41;;;;;;;45.28;12.40;;;;;;;-5.40;97.90;102782.78;2079901;28;43313;-58
2021/12/21 05:15:43;;;;;;;31.50;11.65;;;;;;;-5.43;97.31;102787.81;2079620;28;44391;-58
2021/12/21 05:16:45;;;;;;;18.55;9.70;;;;;;;-5.46;98.38;102785.88;2079974;28;45119;-58
2021/12/21 05:17:47;;;;;;;25.25;11.25;;;;;;;-5.49;97.57;102790.88;2079885;28;45373;-58
2021/12/21 05:18:49;;;;;;;19.92;9.90;;;;;;;-5.50;97.18;102780.34;2079766;28;44568;-59
2021/12/21 05:19:50;;;;;;;43.85;11.70;;;;;;;-5.51;98.46;102778.50;2080288;28;27743;-59
2021/12/21 05:20:52;;;;;;;18.98;11.90;;;;;;;-5.50;98.06;102785.56;2079496;28;44924;-58
2021/12/21 05:21:54;;;;;;;26.17;14.80;;;;;;;-5.49;97.79;102796.13;2062904;28;43819;-58
2021/12/21 05:22:56;;;;;;;33.67;13.85;;;;;;;-5.51;98.27;102791.56;2062794;28;43112;-58
2021/12/21 05:23:58;;;;;;;33.45;15.73;;;;;;;-5.49;97.93;102796.13;2070774;28;44684;-57
2021/12/21 05:24:59;;;;;;;27.40;16.17;;;;;;;-5.47;98.61;102785.75;2079999;28;41036;-58
2021/12/21 05:26:01;;;;;;;31.05;16.85;;;;;;;-5.49;98.77;102790.88;2079651;28;45193;-58
2021/12/21 05:27:04;;;;;;;25.42;12.15;;;;;;;-5.47;97.58;102786.69;2079782;28;43443;-59
2021/12/21 05:28:09;;;;;;;24.17;13.90;;;;;;;-5.48;98.44;102782.25;2079710;28;39558;-58
2021/12/21 05:29:11;;;;;;;21.23;11.77;;;;;;;-5.51;97.58;102787.22;2079833;28;45860;-59
2021/12/21 05:30:13;;;;;;;24.92;14.23;;;;;;;-5.51;97.76;102786.34;2080711;28;30511;-58